createdAt,value
2024-01-05T00:01:06.614Z,82
2024-01-05T00:02:36.633Z,83
2024-01-05T00:04:07.192Z,83
2024-01-05T00:05:37.753Z,83
2024-01-05T00:07:40.251Z,83
2024-01-05T00:09:10.834Z,82
2024-01-05T00:10:41.212Z,83
2024-01-05T00:12:43.867Z,83
2024-01-05T00:14:14.317Z,83
2024-01-05T00:15:44.894Z,83
2024-01-05T00:17:47.423Z,83
2024-01-05T00:19:18.093Z,82
2024-01-05T00:21:20.314Z,83
2024-01-05T00:23:23.082Z,83
2024-01-05T00:24:56.469Z,82
2024-01-05T00:26:27.030Z,82
2024-01-05T00:27:57.529Z,83
2024-01-05T00:29:28.333Z,82
2024-01-05T00:31:31.000Z,82
2024-01-05T00:33:01.697Z,82
2024-01-05T00:34:32.181Z,83
2024-01-05T00:36:02.511Z,82
2024-01-05T00:37:33.042Z,83
2024-01-05T00:39:03.572Z,83
2024-01-05T00:40:33.993Z,83
2024-01-05T00:42:04.587Z,83
2024-01-05T00:43:35.111Z,83
2024-01-05T00:45:05.636Z,82
2024-01-05T00:46:36.235Z,83
2024-01-05T00:48:38.830Z,82
2024-01-05T00:50:09.350Z,82
2024-01-05T00:51:40.123Z,83
2024-01-05T00:53:10.643Z,82
2024-01-05T00:54:41.190Z,82
2024-01-05T00:56:11.634Z,83
2024-01-05T00:57:42.316Z,82
2024-01-05T00:59:12.820Z,82
2024-01-05T01:00:43.417Z,83
2024-01-05T01:02:13.808Z,83
2024-01-05T01:03:44.962Z,83
2024-01-05T01:05:47.345Z,83
2024-01-05T01:07:17.859Z,82
2024-01-05T01:08:48.600Z,82
2024-01-05T01:10:51.049Z,82
2024-01-05T01:12:21.604Z,82
2024-01-05T01:13:52.125Z,82
2024-01-05T01:15:22.592Z,83
2024-01-05T01:17:25.101Z,82
2024-01-05T01:19:27.688Z,82
2024-01-05T01:21:30.183Z,82
2024-01-05T01:23:00.635Z,82
2024-01-05T01:25:03.593Z,82
2024-01-05T01:26:34.102Z,83
2024-01-05T01:28:04.478Z,82
2024-01-05T01:29:34.959Z,82
2024-01-05T01:31:37.709Z,83
2024-01-05T01:33:08.250Z,82
2024-01-05T01:34:38.645Z,82
2024-01-05T01:36:09.142Z,82
2024-01-05T01:37:39.709Z,82
2024-01-05T01:39:10.555Z,83
2024-01-05T01:40:41.070Z,82
2024-01-05T01:42:11.648Z,83
2024-01-05T01:44:14.270Z,82
2024-01-05T01:45:44.783Z,82
2024-01-05T01:47:15.253Z,83
2024-01-05T01:48:46.044Z,83
2024-01-05T01:50:48.602Z,83
2024-01-05T01:52:19.220Z,82
2024-01-05T01:53:49.643Z,83
2024-01-05T01:55:20.254Z,82
2024-01-05T01:56:50.798Z,82
2024-01-05T01:58:22.021Z,83
2024-01-05T01:59:52.454Z,82
2024-01-05T02:01:22.977Z,82
2024-01-05T02:02:53.578Z,82
2024-01-05T02:04:56.178Z,82
2024-01-05T02:06:26.648Z,82
2024-01-05T02:07:57.338Z,82
2024-01-05T02:09:27.822Z,82
2024-01-05T02:10:58.328Z,82
2024-01-05T02:12:28.912Z,82
2024-01-05T02:13:59.593Z,82
2024-01-05T02:15:30.239Z,82
2024-01-05T02:17:32.746Z,82
2024-01-05T02:19:03.543Z,82
2024-01-05T02:21:05.941Z,82
2024-01-05T02:22:36.518Z,82
2024-01-05T02:24:06.966Z,82
2024-01-05T02:25:37.409Z,82
2024-01-05T02:27:07.991Z,82
2024-01-05T02:28:38.469Z,82
2024-01-05T02:30:09.152Z,82
2024-01-05T02:31:39.492Z,82
2024-01-05T02:33:10.133Z,82
2024-01-05T02:34:40.589Z,82
2024-01-05T02:36:11.051Z,82
2024-01-05T02:37:41.513Z,82
2024-01-05T02:39:12.149Z,82
2024-01-05T02:41:14.894Z,82
2024-01-05T02:42:45.413Z,82
2024-01-05T02:44:16.123Z,82
2024-01-05T02:45:46.602Z,82
2024-01-05T02:47:17.418Z,82
2024-01-05T02:49:19.566Z,83
2024-01-05T02:51:22.199Z,82
2024-01-05T02:52:52.674Z,82
2024-01-05T02:54:23.240Z,82
2024-01-05T02:55:53.744Z,82
2024-01-05T02:57:24.277Z,82
2024-01-05T02:58:54.789Z,82
2024-01-05T03:00:25.350Z,82
2024-01-05T03:01:55.921Z,82
2024-01-05T03:03:26.491Z,82
2024-01-05T03:04:56.905Z,82
2024-01-05T03:06:27.507Z,83
2024-01-05T03:07:57.879Z,83
2024-01-05T03:09:28.420Z,83
2024-01-05T03:10:58.981Z,82
2024-01-05T03:13:01.937Z,82
2024-01-05T03:14:32.105Z,82
2024-01-05T03:16:02.694Z,82
2024-01-05T03:17:33.245Z,82
2024-01-05T03:19:03.980Z,82
2024-01-05T03:20:36.970Z,82
2024-01-05T03:22:07.474Z,82
2024-01-05T03:23:38.142Z,82
2024-01-05T03:25:11.548Z,82
2024-01-05T03:26:42.393Z,82
2024-01-05T03:28:13.077Z,82
2024-01-05T03:29:43.522Z,82
2024-01-05T03:31:14.284Z,82
2024-01-05T03:32:44.934Z,82
2024-01-05T03:34:15.753Z,82
2024-01-05T03:35:46.013Z,82
2024-01-05T03:37:16.579Z,82
2024-01-05T03:39:19.219Z,82
2024-01-05T03:40:49.679Z,82
2024-01-05T03:42:20.375Z,82
2024-01-05T03:43:51.075Z,82
2024-01-05T03:45:21.567Z,82
2024-01-05T03:46:52.307Z,82
2024-01-05T03:48:55.206Z,82
2024-01-05T03:50:25.840Z,82
2024-01-05T03:51:56.131Z,82
2024-01-05T03:53:26.662Z,82
2024-01-05T03:54:57.585Z,82
2024-01-05T03:56:59.927Z,82
2024-01-05T03:58:30.353Z,82
2024-01-05T04:00:00.914Z,82
2024-01-05T04:01:31.665Z,82
2024-01-05T04:03:34.363Z,83
2024-01-05T04:05:04.656Z,82
2024-01-05T04:06:35.233Z,82
2024-01-05T04:08:05.792Z,82
2024-01-05T04:09:36.295Z,83
2024-01-05T04:11:06.801Z,83
2024-01-05T04:12:37.387Z,83
2024-01-05T04:14:08.065Z,83
2024-01-05T04:15:38.176Z,82
2024-01-05T04:17:08.618Z,82
2024-01-05T04:18:39.538Z,82
2024-01-05T04:20:10.183Z,82
2024-01-05T04:21:40.669Z,82
2024-01-05T04:23:11.203Z,82
2024-01-05T04:24:41.774Z,82
2024-01-05T04:26:12.366Z,83
2024-01-05T04:27:42.957Z,83
2024-01-05T04:29:13.438Z,83
2024-01-05T04:31:16.188Z,83
2024-01-05T04:32:46.597Z,83
2024-01-05T04:34:49.065Z,83
2024-01-05T04:36:19.539Z,83
2024-01-05T04:37:50.040Z,83
2024-01-05T04:39:55.731Z,83
2024-01-05T04:41:28.902Z,82
2024-01-05T04:42:59.508Z,83
2024-01-05T04:45:01.869Z,83
2024-01-05T04:46:32.309Z,83
2024-01-05T04:48:02.929Z,83
2024-01-05T04:49:33.251Z,83
2024-01-05T04:51:03.581Z,83
2024-01-05T04:53:06.098Z,83
2024-01-05T04:54:36.587Z,83
2024-01-05T04:56:06.973Z,83
2024-01-05T04:57:37.587Z,83
2024-01-05T04:59:08.121Z,83
2024-01-05T05:01:10.686Z,83
2024-01-05T05:03:13.253Z,83
2024-01-05T05:04:45.815Z,83
2024-01-05T05:06:46.246Z,83
2024-01-05T05:08:16.663Z,82
2024-01-05T05:10:19.377Z,83
2024-01-05T05:11:49.802Z,83
2024-01-05T05:13:20.311Z,83
2024-01-05T05:14:50.824Z,83
2024-01-05T05:16:21.282Z,83
2024-01-05T05:17:54.416Z,83
2024-01-05T05:19:54.217Z,83
2024-01-05T05:21:56.933Z,83
2024-01-05T05:23:27.426Z,83
2024-01-05T05:24:57.829Z,83
2024-01-05T05:27:00.448Z,83
2024-01-05T05:28:30.748Z,83
2024-01-05T05:30:01.184Z,83
2024-01-05T05:31:31.716Z,83
2024-01-05T05:33:02.250Z,83
2024-01-05T05:34:32.719Z,83
2024-01-05T05:36:03.214Z,83
2024-01-05T05:37:33.600Z,83
2024-01-05T05:39:36.143Z,83
2024-01-05T05:41:38.474Z,83
2024-01-05T05:43:09.083Z,83
2024-01-05T05:44:39.578Z,83
2024-01-05T05:46:10.080Z,83
2024-01-05T05:47:40.650Z,83
2024-01-05T05:49:11.105Z,82
2024-01-05T05:50:41.626Z,83
2024-01-05T05:52:44.141Z,83
2024-01-05T05:54:14.648Z,83
2024-01-05T05:55:45.367Z,83
2024-01-05T05:57:15.807Z,83
2024-01-05T05:58:46.309Z,83
2024-01-05T06:00:16.968Z,83
2024-01-05T06:01:47.476Z,83
2024-01-05T06:03:18.045Z,83
2024-01-05T06:04:48.380Z,83
2024-01-05T06:06:51.144Z,83
2024-01-05T06:08:21.627Z,83
2024-01-05T06:09:54.693Z,83
2024-01-05T06:11:25.192Z,83
2024-01-05T06:12:55.747Z,83
2024-01-05T06:14:26.239Z,83
2024-01-05T06:15:56.774Z,83
2024-01-05T06:17:27.297Z,83
2024-01-05T06:18:58.170Z,83
2024-01-05T06:20:28.554Z,83
2024-01-05T06:21:59.058Z,83
2024-01-05T06:23:29.611Z,83
2024-01-05T06:25:00.077Z,83
2024-01-05T06:26:30.501Z,83
2024-01-05T06:28:33.098Z,83
2024-01-05T06:30:03.475Z,83
2024-01-05T06:31:34.012Z,83
2024-01-05T06:33:04.427Z,83
2024-01-05T06:35:06.888Z,83
2024-01-05T06:37:09.401Z,83
2024-01-05T06:38:39.817Z,83
2024-01-05T06:40:42.357Z,82
2024-01-05T06:42:44.908Z,83
2024-01-05T06:44:15.384Z,83
2024-01-05T06:45:45.974Z,83
2024-01-05T06:47:48.426Z,83
2024-01-05T06:49:19.016Z,83
2024-01-05T06:50:49.534Z,83
2024-01-05T06:52:19.910Z,83
2024-01-05T06:54:22.550Z,83
2024-01-05T06:55:53.087Z,83
2024-01-05T06:57:23.557Z,83
2024-01-05T06:58:54.071Z,83
2024-01-05T07:00:24.604Z,83
2024-01-05T07:02:27.158Z,83
2024-01-05T07:03:57.780Z,83
2024-01-05T07:05:28.145Z,83
2024-01-05T07:07:30.679Z,83
2024-01-05T07:09:33.246Z,83
2024-01-05T07:11:03.689Z,83
2024-01-05T07:12:34.261Z,83
2024-01-05T07:14:04.530Z,83
2024-01-05T07:15:35.009Z,83
2024-01-05T07:17:05.441Z,83
2024-01-05T07:19:08.148Z,82
2024-01-05T07:20:38.442Z,82
2024-01-05T07:22:08.995Z,83
2024-01-05T07:23:39.411Z,83
2024-01-05T07:25:10.008Z,83
2024-01-05T07:26:40.425Z,83
2024-01-05T07:28:10.939Z,83
2024-01-05T07:29:41.276Z,83
2024-01-05T07:31:11.923Z,83
2024-01-05T07:32:42.261Z,83
2024-01-05T07:34:12.688Z,83
2024-01-05T07:35:43.159Z,83
2024-01-05T07:37:13.669Z,83
2024-01-05T07:38:44.091Z,83
2024-01-05T07:40:14.574Z,83
2024-01-05T07:42:17.101Z,83
2024-01-05T07:44:19.562Z,83
2024-01-05T07:45:51.250Z,83
2024-01-05T07:47:20.352Z,83
2024-01-05T07:48:50.901Z,83
2024-01-05T07:50:21.243Z,83
2024-01-05T07:51:52.117Z,83
2024-01-05T07:53:54.181Z,82
2024-01-05T07:55:24.672Z,82
2024-01-05T07:56:55.021Z,82
2024-01-05T07:58:25.380Z,82
2024-01-05T07:59:56.060Z,83
2024-01-05T08:01:26.484Z,82
2024-01-05T08:02:56.910Z,82
2024-01-05T08:04:27.352Z,82
2024-01-05T08:05:57.861Z,82
2024-01-05T08:07:28.225Z,83
2024-01-05T08:08:58.810Z,83
2024-01-05T08:11:01.311Z,82
2024-01-05T08:13:03.805Z,82
2024-01-05T08:14:34.286Z,82
2024-01-05T08:16:36.696Z,83
2024-01-05T08:18:07.456Z,82
2024-01-05T08:19:37.758Z,83
2024-01-05T08:21:40.355Z,82
2024-01-05T08:23:10.604Z,82
2024-01-05T08:24:41.042Z,83
2024-01-05T08:26:43.593Z,83
2024-01-05T08:28:46.075Z,83
2024-01-05T08:30:16.644Z,83
2024-01-05T08:31:47.538Z,83
2024-01-05T08:33:49.673Z,82
2024-01-05T08:35:20.249Z,82
2024-01-05T08:36:50.676Z,83
2024-01-05T08:38:21.237Z,82
2024-01-05T08:40:23.710Z,82
2024-01-05T08:42:26.339Z,82
2024-01-05T08:43:56.750Z,82
2024-01-05T08:45:59.188Z,83
2024-01-05T08:47:29.704Z,82
2024-01-05T08:49:32.112Z,83
2024-01-05T08:51:34.598Z,82
2024-01-05T08:53:05.138Z,82
2024-01-05T08:54:35.695Z,82
2024-01-05T08:56:06.054Z,82
2024-01-05T08:57:36.609Z,82
2024-01-05T08:59:07.020Z,82
2024-01-05T09:01:09.581Z,82
2024-01-05T09:02:39.948Z,82
2024-01-05T09:04:10.522Z,83
2024-01-05T09:06:12.988Z,82
2024-01-05T09:07:43.456Z,82
2024-01-05T09:09:14.071Z,83
2024-01-05T09:10:44.617Z,83
2024-01-05T09:12:47.166Z,82
2024-01-05T09:14:17.593Z,82
2024-01-05T09:15:48.154Z,82
2024-01-05T09:17:18.438Z,82
2024-01-05T09:18:48.973Z,83
2024-01-05T09:20:19.372Z,82
2024-01-05T09:21:52.679Z,82
2024-01-05T09:23:23.176Z,83
2024-01-05T09:25:25.769Z,82
2024-01-05T09:27:28.282Z,82
2024-01-05T09:28:58.794Z,82
2024-01-05T09:31:01.463Z,83
2024-01-05T09:32:31.825Z,82
2024-01-05T09:34:02.228Z,82
2024-01-05T09:35:32.564Z,82
2024-01-05T09:37:03.166Z,83
2024-01-05T09:38:33.621Z,82
2024-01-05T09:40:04.055Z,82
2024-01-05T09:41:37.332Z,83
2024-01-05T09:43:05.170Z,83
2024-01-05T09:44:35.684Z,83
2024-01-05T09:46:06.152Z,83
2024-01-05T09:47:38.212Z,83
2024-01-05T09:49:39.366Z,82
2024-01-05T09:51:09.655Z,82
2024-01-05T09:53:12.188Z,82
2024-01-05T09:54:42.789Z,82
2024-01-05T09:56:13.142Z,82
2024-01-05T09:58:15.636Z,82
2024-01-05T09:59:46.136Z,82
2024-01-05T10:01:16.606Z,82
2024-01-05T10:02:47.085Z,83
2024-01-05T10:04:17.847Z,83
2024-01-05T10:06:20.427Z,83
2024-01-05T10:08:22.866Z,83
2024-01-05T10:09:53.383Z,82
2024-01-05T10:11:56.186Z,82
2024-01-05T10:13:26.624Z,82
2024-01-05T10:14:57.174Z,82
2024-01-05T10:16:59.669Z,83
2024-01-05T10:19:02.292Z,83
2024-01-05T10:20:32.571Z,82
2024-01-05T10:22:35.150Z,83
2024-01-05T10:24:05.567Z,83
2024-01-05T10:25:36.062Z,83
2024-01-05T10:27:06.731Z,83
2024-01-05T10:29:08.977Z,83
2024-01-05T10:30:39.495Z,83
2024-01-05T10:32:09.810Z,83
2024-01-05T10:34:12.486Z,83
2024-01-05T10:35:45.017Z,83
2024-01-05T10:37:45.337Z,83
2024-01-05T10:39:15.878Z,83
2024-01-05T10:40:46.341Z,83
2024-01-05T10:42:16.866Z,83
2024-01-05T10:43:47.271Z,83
2024-01-05T10:45:17.786Z,83
2024-01-05T10:46:48.198Z,83
2024-01-05T10:48:18.930Z,83
2024-01-05T10:49:49.268Z,83
2024-01-05T10:51:51.662Z,83
2024-01-05T10:53:22.138Z,82
2024-01-05T10:54:52.546Z,83
2024-01-05T10:56:55.178Z,83
2024-01-05T10:58:25.645Z,83
2024-01-05T11:00:28.150Z,83
2024-01-05T11:01:58.856Z,83
2024-01-05T11:04:01.371Z,83
2024-01-05T11:06:03.906Z,83
2024-01-05T11:08:06.283Z,82
2024-01-05T11:09:36.850Z,83
2024-01-05T11:11:39.288Z,83
2024-01-05T11:13:09.731Z,83
2024-01-05T11:14:40.216Z,83
2024-01-05T11:16:10.703Z,83
2024-01-05T11:18:13.331Z,83
2024-01-05T11:19:43.806Z,83
2024-01-05T11:21:46.215Z,83
2024-01-05T11:23:48.732Z,83
2024-01-05T11:25:19.183Z,83
2024-01-05T11:26:49.606Z,83
2024-01-05T11:28:52.081Z,83
2024-01-05T11:30:24.053Z,83
2024-01-05T11:32:25.148Z,83
2024-01-05T11:33:55.913Z,83
2024-01-05T11:35:26.236Z,83
2024-01-05T11:36:56.729Z,83
2024-01-05T11:38:27.267Z,83
2024-01-05T11:39:57.754Z,83
2024-01-05T11:41:28.367Z,83
2024-01-05T11:43:30.856Z,83
2024-01-05T11:45:33.598Z,83
2024-01-05T11:47:04.049Z,83
2024-01-05T11:49:06.624Z,83
2024-01-05T11:51:09.089Z,83
2024-01-05T11:52:39.559Z,83
2024-01-05T11:54:09.951Z,83
2024-01-05T11:55:40.349Z,83
2024-01-05T11:57:10.850Z,83
2024-01-05T11:58:41.303Z,83
2024-01-05T12:00:11.864Z,83
2024-01-05T12:01:42.422Z,83
2024-01-05T12:03:45.093Z,83
2024-01-05T12:05:15.430Z,83
2024-01-05T12:06:45.791Z,83
2024-01-05T12:08:16.161Z,83
2024-01-05T12:10:18.690Z,83
2024-01-05T12:11:49.174Z,83
2024-01-05T12:13:51.628Z,83
2024-01-05T12:15:22.342Z,83
2024-01-05T12:16:52.674Z,83
2024-01-05T12:18:55.246Z,83
2024-01-05T12:20:25.825Z,83
2024-01-05T12:21:56.252Z,83
2024-01-05T12:23:58.723Z,83
2024-01-05T12:25:29.161Z,83
2024-01-05T12:26:59.647Z,83
2024-01-05T12:28:30.029Z,83
2024-01-05T12:30:34.158Z,83
2024-01-05T12:32:03.067Z,83
2024-01-05T12:33:33.567Z,83
2024-01-05T12:35:03.986Z,83
2024-01-05T12:36:34.436Z,83
2024-01-05T12:38:04.762Z,83
2024-01-05T12:39:35.207Z,83
2024-01-05T12:41:05.624Z,83
2024-01-05T12:43:08.143Z,82
2024-01-05T12:44:38.596Z,82
2024-01-05T12:46:09.027Z,83
2024-01-05T12:48:11.823Z,83
2024-01-05T12:49:42.112Z,83
2024-01-05T12:51:44.526Z,83
2024-01-05T12:53:14.956Z,83
2024-01-05T12:54:45.535Z,83
2024-01-05T12:56:47.923Z,83
2024-01-05T12:58:50.466Z,83
2024-01-05T13:00:20.930Z,83
2024-01-05T13:01:51.420Z,83
2024-01-05T13:03:21.912Z,83
2024-01-05T13:04:52.270Z,83
2024-01-05T13:06:54.808Z,82
2024-01-05T13:08:57.241Z,83
2024-01-05T13:10:27.746Z,83
2024-01-05T13:12:30.238Z,83
2024-01-05T13:14:32.709Z,82
2024-01-05T13:16:03.277Z,82
2024-01-05T13:17:33.694Z,82
2024-01-05T13:19:04.177Z,82
2024-01-05T13:20:34.462Z,82
2024-01-05T13:22:04.888Z,82
2024-01-05T13:23:35.266Z,82
2024-01-05T13:25:05.741Z,82
2024-01-05T13:26:36.118Z,82
2024-01-05T13:28:06.604Z,83
2024-01-05T13:29:37.045Z,82
2024-01-05T13:31:07.545Z,82
2024-01-05T13:32:38.061Z,82
2024-01-05T13:34:40.432Z,83
2024-01-05T13:36:10.801Z,83
2024-01-05T13:38:13.291Z,83
2024-01-05T13:39:43.764Z,82
2024-01-05T13:41:14.205Z,82
2024-01-05T13:42:44.703Z,82
2024-01-05T13:44:15.053Z,82
2024-01-05T13:46:17.578Z,82
2024-01-05T13:47:48.059Z,82
2024-01-05T13:49:18.584Z,82
2024-01-05T13:50:48.994Z,82
2024-01-05T13:52:19.475Z,82
2024-01-05T13:53:49.938Z,82
2024-01-05T13:55:20.383Z,82
2024-01-05T13:56:50.767Z,82
2024-01-05T13:58:21.233Z,82
2024-01-05T13:59:51.706Z,82
2024-01-05T14:01:22.165Z,82
2024-01-05T14:02:52.610Z,83
2024-01-05T14:04:55.110Z,83
2024-01-05T14:06:25.576Z,83
2024-01-05T14:07:55.969Z,83
2024-01-05T14:09:58.512Z,82
2024-01-05T14:11:28.976Z,82
2024-01-05T14:13:31.434Z,82
2024-01-05T14:15:01.995Z,82
2024-01-05T14:16:32.372Z,82
2024-01-05T14:18:35.091Z,82
2024-01-05T14:20:05.486Z,82
2024-01-05T14:21:35.948Z,82
2024-01-05T14:23:06.422Z,82
2024-01-05T14:24:36.826Z,82
2024-01-05T14:26:07.333Z,82
2024-01-05T14:27:37.782Z,82
2024-01-05T14:29:40.230Z,82
2024-01-05T14:31:10.838Z,82
2024-01-05T14:32:41.215Z,82
2024-01-05T14:34:11.681Z,82
2024-01-05T14:35:42.109Z,82
2024-01-05T14:37:12.631Z,82
2024-01-05T14:38:43.037Z,82
2024-01-05T14:40:13.579Z,82
2024-01-05T14:42:16.043Z,82
2024-01-05T14:43:46.452Z,82
2024-01-05T14:45:17.040Z,82
2024-01-05T14:46:47.423Z,82
2024-01-05T14:48:50.093Z,82
2024-01-05T14:50:20.518Z,82
2024-01-05T14:52:22.956Z,82
2024-01-05T14:53:53.473Z,82
2024-01-05T14:55:23.912Z,82
2024-01-05T14:56:54.367Z,82
2024-01-05T14:58:24.835Z,82
2024-01-05T14:59:55.211Z,82
2024-01-05T15:01:25.728Z,82
2024-01-05T15:02:58.778Z,82
2024-01-05T15:04:31.103Z,82
2024-01-05T15:06:31.774Z,82
2024-01-05T15:08:02.217Z,82
2024-01-05T15:10:04.749Z,82
2024-01-05T15:12:07.222Z,82
2024-01-05T15:13:37.698Z,82
2024-01-05T15:15:08.585Z,82
2024-01-05T15:17:10.525Z,82
2024-01-05T15:19:13.022Z,82
2024-01-05T15:21:15.407Z,82
2024-01-05T15:22:45.878Z,82
2024-01-05T15:24:16.326Z,82
2024-01-05T15:25:46.752Z,82
2024-01-05T15:27:50.345Z,82
2024-01-05T15:29:19.779Z,82
2024-01-05T15:31:25.024Z,82
2024-01-05T15:32:55.306Z,82
2024-01-05T15:34:25.771Z,82
2024-01-05T15:35:56.208Z,82
2024-01-05T15:37:26.584Z,82
2024-01-05T15:39:29.183Z,82
2024-01-05T15:40:59.542Z,82
2024-01-05T15:42:30.015Z,82
2024-01-05T15:44:32.503Z,82
2024-01-05T15:46:02.942Z,82
2024-01-05T15:47:33.432Z,82
2024-01-05T15:49:35.943Z,82
2024-01-05T15:51:06.368Z,82
2024-01-05T15:52:39.548Z,82
2024-01-05T15:54:10.009Z,82
2024-01-05T15:55:41.164Z,82
2024-01-05T15:57:10.946Z,82
2024-01-05T15:59:13.707Z,82
2024-01-05T16:00:43.913Z,82
2024-01-05T16:02:14.365Z,82
2024-01-05T16:04:16.939Z,82
2024-01-05T16:05:47.404Z,82
2024-01-05T16:07:17.847Z,82
2024-01-05T16:09:20.324Z,82
2024-01-05T16:11:22.838Z,82
2024-01-05T16:12:53.319Z,82
2024-01-05T16:14:55.780Z,82
2024-01-05T16:16:26.397Z,82
2024-01-05T16:17:56.867Z,82
2024-01-05T16:19:59.292Z,82
2024-01-05T16:21:29.854Z,82
2024-01-05T16:23:32.207Z,82
2024-01-05T16:25:02.594Z,82
2024-01-05T16:26:33.087Z,82
2024-01-05T16:28:03.536Z,82
2024-01-05T16:29:33.962Z,82
2024-01-05T16:31:04.525Z,82
2024-01-05T16:32:35.018Z,82
2024-01-05T16:34:05.456Z,82
2024-01-05T16:36:07.863Z,82
2024-01-05T16:37:38.265Z,82
2024-01-05T16:39:08.763Z,82
2024-01-05T16:41:11.204Z,82
2024-01-05T16:42:41.779Z,82
2024-01-05T16:44:12.139Z,82
2024-01-05T16:45:45.068Z,82
2024-01-05T16:47:12.983Z,82
2024-01-05T16:48:43.544Z,82
2024-01-05T16:50:13.918Z,82
2024-01-05T16:51:44.351Z,82
2024-01-05T16:53:14.791Z,82
2024-01-05T16:54:45.333Z,82
2024-01-05T16:56:15.710Z,82
2024-01-05T16:57:46.149Z,82
2024-01-05T16:59:16.557Z,82
2024-01-05T17:01:19.111Z,82
2024-01-05T17:02:49.598Z,82
2024-01-05T17:04:52.109Z,82
2024-01-05T17:06:22.564Z,82
2024-01-05T17:07:52.955Z,82
2024-01-05T17:09:55.624Z,82
2024-01-05T17:11:25.825Z,82
2024-01-05T17:12:56.264Z,82
2024-01-05T17:14:58.767Z,82
2024-01-05T17:16:29.430Z,82
2024-01-05T17:18:03.150Z,82
2024-01-05T17:19:33.318Z,82
2024-01-05T17:21:35.822Z,82
2024-01-05T17:23:38.201Z,82
2024-01-05T17:25:08.635Z,82
2024-01-05T17:27:11.180Z,82
2024-01-05T17:28:41.629Z,82
2024-01-05T17:30:12.107Z,82
2024-01-05T17:31:42.488Z,82
2024-01-05T17:33:45.175Z,82
2024-01-05T17:35:15.573Z,82
2024-01-05T17:37:19.044Z,82
2024-01-05T17:38:48.500Z,82
2024-01-05T17:40:18.984Z,82
2024-01-05T17:42:21.485Z,82
2024-01-05T17:43:51.884Z,82
2024-01-05T17:45:22.442Z,82
2024-01-05T17:47:24.908Z,82
2024-01-05T17:48:55.559Z,82
2024-01-05T17:50:25.899Z,82
2024-01-05T17:51:56.379Z,82
2024-01-05T17:53:58.876Z,82
2024-01-05T17:55:29.314Z,82
2024-01-05T17:56:59.736Z,82
2024-01-05T17:59:02.271Z,82
2024-01-05T18:00:32.808Z,82
2024-01-05T18:02:03.255Z,82
2024-01-05T18:04:05.956Z,82
2024-01-05T18:05:36.341Z,82
2024-01-05T18:07:07.004Z,82
2024-01-05T18:08:37.179Z,82
2024-01-05T18:10:07.803Z,82
2024-01-05T18:11:38.217Z,82
2024-01-05T18:13:08.650Z,82
2024-01-05T18:14:39.428Z,82
2024-01-05T18:16:09.559Z,82
2024-01-05T18:17:40.082Z,82
2024-01-05T18:19:42.693Z,81
2024-01-05T18:21:13.066Z,81
2024-01-05T18:22:43.518Z,81
2024-01-05T18:24:13.993Z,81
2024-01-05T18:25:44.425Z,81
2024-01-05T18:27:14.851Z,81
2024-01-05T18:28:45.341Z,81
2024-01-05T18:30:15.833Z,82
2024-01-05T18:31:46.183Z,82
2024-01-05T18:33:48.824Z,82
2024-01-05T18:35:19.140Z,82
2024-01-05T18:37:21.611Z,81
2024-01-05T18:39:24.177Z,81
2024-01-05T18:40:54.615Z,81
2024-01-05T18:42:25.098Z,81
2024-01-05T18:44:27.664Z,81
2024-01-05T18:45:58.192Z,83
2024-01-05T18:47:28.719Z,82
2024-01-05T18:48:59.138Z,82
2024-01-05T18:51:01.612Z,82
2024-01-05T18:52:32.078Z,82
2024-01-05T18:54:02.667Z,82
2024-01-05T18:55:32.984Z,82
2024-01-05T18:57:03.541Z,82
2024-01-05T18:58:33.920Z,82
2024-01-05T19:00:04.394Z,82
2024-01-05T19:01:34.805Z,83
2024-01-05T19:03:37.427Z,82
2024-01-05T19:05:07.912Z,81
2024-01-05T19:07:10.356Z,81
2024-01-05T19:09:13.043Z,82
2024-01-05T19:10:43.366Z,81
2024-01-05T19:12:45.865Z,82
2024-01-05T19:14:48.431Z,80
2024-01-05T19:16:18.932Z,80
2024-01-05T19:18:21.688Z,80
2024-01-05T19:19:51.842Z,80
2024-01-05T19:21:22.343Z,79
2024-01-05T19:23:24.787Z,78
2024-01-05T19:24:55.280Z,78
2024-01-05T19:26:25.715Z,77
2024-01-05T19:27:56.284Z,77
2024-01-05T19:29:58.889Z,76
2024-01-05T19:31:29.507Z,76
2024-01-05T19:32:59.930Z,75
2024-01-05T19:34:30.311Z,75
2024-01-05T19:36:00.793Z,75
2024-01-05T19:37:31.218Z,74
2024-01-05T19:39:01.675Z,74
2024-01-05T19:41:09.220Z,74
2024-01-05T19:42:39.805Z,74
2024-01-05T19:44:42.257Z,73
2024-01-05T19:46:15.404Z,73
2024-01-05T19:47:45.941Z,73
2024-01-05T19:49:48.409Z,73
2024-01-05T19:51:18.788Z,73
2024-01-05T19:52:49.248Z,73
2024-01-05T19:54:51.773Z,73
2024-01-05T19:56:54.148Z,73
2024-01-05T19:58:24.593Z,73
2024-01-05T19:59:55.198Z,73
2024-01-05T20:01:25.691Z,73
2024-01-05T20:03:28.204Z,72
2024-01-05T20:05:30.611Z,72
2024-01-05T20:07:33.068Z,72
2024-01-05T20:09:35.847Z,72
2024-01-05T20:11:06.049Z,72
2024-01-05T20:13:08.569Z,73
2024-01-05T20:14:38.998Z,73
2024-01-05T20:16:09.506Z,73
2024-01-05T20:17:39.937Z,73
2024-01-05T20:19:10.508Z,73
2024-01-05T20:20:40.895Z,73
2024-01-05T20:22:11.353Z,73
2024-01-05T20:24:13.837Z,73
2024-01-05T20:25:44.238Z,73
2024-01-05T20:27:14.769Z,73
2024-01-05T20:28:45.183Z,73
2024-01-05T20:30:48.098Z,73
2024-01-05T20:32:18.202Z,73
2024-01-05T20:33:48.714Z,73
2024-01-05T20:35:51.134Z,73
2024-01-05T20:37:21.600Z,73
2024-01-05T20:38:51.999Z,73
2024-01-05T20:40:22.447Z,73
2024-01-05T20:41:52.891Z,73
2024-01-05T20:43:23.399Z,73
2024-01-05T20:45:25.880Z,73
2024-01-05T20:47:28.514Z,72
2024-01-05T20:48:59.088Z,72
2024-01-05T20:50:29.363Z,73
2024-01-05T20:52:31.913Z,73
2024-01-05T20:54:02.343Z,72
2024-01-05T20:55:32.873Z,73
2024-01-05T20:57:03.396Z,73
2024-01-05T20:58:33.922Z,72
2024-01-05T21:00:04.359Z,72
2024-01-05T21:02:06.792Z,72
2024-01-05T21:03:37.425Z,72
2024-01-05T21:05:07.783Z,72
2024-01-05T21:06:38.209Z,72
2024-01-05T21:08:40.695Z,72
2024-01-05T21:10:11.165Z,72
2024-01-05T21:12:13.690Z,72
2024-01-05T21:13:44.246Z,72
2024-01-05T21:15:14.683Z,72
2024-01-05T21:16:45.207Z,72
2024-01-05T21:18:15.799Z,72
2024-01-05T21:19:46.517Z,72
2024-01-05T21:21:16.688Z,72
2024-01-05T21:23:19.137Z,71
2024-01-05T21:25:21.716Z,72
2024-01-05T21:27:24.228Z,72
2024-01-05T21:29:26.657Z,71
2024-01-05T21:31:29.367Z,71
2024-01-05T21:33:31.849Z,71
2024-01-05T21:35:34.200Z,71
2024-01-05T21:37:36.682Z,71
2024-01-05T21:39:07.181Z,71
2024-01-05T21:41:09.635Z,71
2024-01-05T21:43:12.186Z,71
2024-01-05T21:44:42.663Z,71
2024-01-05T21:46:13.151Z,71
2024-01-05T21:48:15.816Z,71
2024-01-05T21:49:46.161Z,71
2024-01-05T21:51:16.619Z,71
2024-01-05T21:53:21.932Z,71
2024-01-05T21:54:52.484Z,71
2024-01-05T21:56:54.773Z,71
2024-01-05T21:58:25.275Z,71
2024-01-05T21:59:55.753Z,71
2024-01-05T22:01:26.300Z,71
2024-01-05T22:03:28.882Z,71
2024-01-05T22:04:59.262Z,71
2024-01-05T22:07:02.012Z,70
2024-01-05T22:08:32.247Z,70
2024-01-05T22:10:02.683Z,70
2024-01-05T22:11:33.203Z,70
2024-01-05T22:13:35.801Z,70
2024-01-05T22:15:06.332Z,70
2024-01-05T22:17:08.725Z,70
2024-01-05T22:18:39.475Z,70
2024-01-05T22:20:09.698Z,70
2024-01-05T22:22:12.183Z,70
2024-01-05T22:23:42.687Z,70
2024-01-05T22:25:13.127Z,70
2024-01-05T22:26:43.519Z,70
2024-01-05T22:28:13.946Z,70
2024-01-05T22:30:16.617Z,70
2024-01-05T22:31:47.232Z,70
2024-01-05T22:33:49.565Z,70
2024-01-05T22:35:53.934Z,70
2024-01-05T22:37:22.433Z,70
2024-01-05T22:39:24.901Z,70
2024-01-05T22:40:55.356Z,70
2024-01-05T22:44:01.451Z,70
2024-01-05T22:46:03.942Z,70
2024-01-05T22:47:34.527Z,70
2024-01-05T22:49:05.085Z,70
2024-01-05T22:51:07.415Z,69
2024-01-05T22:52:37.852Z,69
2024-01-05T22:54:08.410Z,70
2024-01-05T22:56:11.026Z,69
2024-01-05T22:57:41.543Z,69
2024-01-05T22:59:43.948Z,69
2024-01-05T23:01:46.494Z,69
2024-01-05T23:03:16.988Z,69
2024-01-05T23:04:47.389Z,69
2024-01-05T23:06:18.036Z,69
2024-01-05T23:08:23.280Z,69
2024-01-05T23:09:50.815Z,69
2024-01-05T23:11:21.204Z,69
2024-01-05T23:12:51.610Z,69
2024-01-05T23:14:22.196Z,69
2024-01-05T23:15:52.771Z,69
2024-01-05T23:17:23.083Z,69
2024-01-05T23:19:25.588Z,69
2024-01-05T23:20:56.080Z,69
2024-01-05T23:22:58.632Z,69
2024-01-05T23:24:29.201Z,69
2024-01-05T23:25:59.602Z,69
2024-01-05T23:28:02.111Z,69
2024-01-05T23:29:32.550Z,69
2024-01-05T23:31:03.040Z,69
2024-01-05T23:32:33.444Z,69
2024-01-05T23:34:08.688Z,69